createdAt,value
2022-12-27T00:00:16.598Z,3.6
2022-12-27T00:01:16.697Z,3.6
2022-12-27T00:02:17.052Z,3.6
2022-12-27T00:03:17.103Z,3.6
2022-12-27T00:04:17.201Z,3.52
2022-12-27T00:05:17.304Z,3.52
2022-12-27T00:06:17.403Z,3.52
2022-12-27T00:07:17.553Z,3.44
2022-12-27T00:08:17.709Z,3.52
2022-12-27T00:09:17.818Z,3.44
2022-12-27T00:10:17.954Z,3.6
2022-12-27T00:11:18.115Z,3.44
2022-12-27T00:12:18.262Z,3.52
2022-12-27T00:13:18.362Z,3.44
2022-12-27T00:14:18.518Z,3.44
2022-12-27T00:15:18.662Z,3.44
2022-12-27T00:16:18.838Z,3.44
2022-12-27T00:17:18.976Z,3.44
2022-12-27T00:18:19.130Z,3.52
2022-12-27T00:19:19.288Z,3.44
2022-12-27T00:20:19.411Z,3.52
2022-12-27T00:21:19.533Z,3.44
2022-12-27T00:22:19.687Z,3.28
2022-12-27T00:23:19.817Z,3.44
2022-12-27T00:24:19.948Z,3.28
2022-12-27T00:25:20.019Z,3.52
2022-12-27T00:26:20.201Z,3.6
2022-12-27T00:27:20.283Z,3.44
2022-12-27T00:28:20.440Z,3.52
2022-12-27T00:29:20.596Z,3.52
2022-12-27T00:30:20.749Z,3.44
2022-12-27T00:31:20.897Z,3.44
2022-12-27T00:32:21.009Z,3.52
2022-12-27T00:33:21.131Z,3.52
2022-12-27T00:34:21.305Z,3.44
2022-12-27T00:35:21.466Z,3.28
2022-12-27T00:36:21.599Z,3.44
2022-12-27T00:37:21.749Z,3.44
2022-12-27T00:38:21.913Z,3.28
2022-12-27T00:39:22.060Z,3.28
2022-12-27T00:40:22.155Z,3.28
2022-12-27T00:41:22.305Z,3.44
2022-12-27T00:42:22.417Z,3.52
2022-12-27T00:43:22.558Z,3.44
2022-12-27T00:44:22.703Z,3.28
2022-12-27T00:45:22.834Z,3.28
2022-12-27T00:46:22.956Z,3.28
2022-12-27T00:47:23.106Z,3.28
2022-12-27T00:48:23.255Z,3.44
2022-12-27T00:49:23.413Z,3.44
2022-12-27T00:50:23.616Z,3.28
2022-12-27T00:51:23.734Z,3.28
2022-12-27T00:52:23.868Z,3.28
2022-12-27T00:53:24.039Z,3.44
2022-12-27T00:54:24.176Z,3.28
2022-12-27T00:55:24.322Z,3.28
2022-12-27T00:56:24.483Z,3.2
2022-12-27T00:57:24.629Z,3.2
2022-12-27T00:58:24.784Z,3.2
2022-12-27T00:59:24.935Z,3.2
2022-12-27T01:00:25.100Z,3.44
2022-12-27T01:01:25.269Z,3.28
2022-12-27T01:02:25.393Z,3.28
2022-12-27T01:03:25.493Z,3.2
2022-12-27T01:04:25.587Z,3.28
2022-12-27T01:05:25.743Z,3.28
2022-12-27T01:06:25.933Z,3.44
2022-12-27T01:07:26.037Z,3.28
2022-12-27T01:08:26.195Z,3.2
2022-12-27T01:09:26.369Z,3.28
2022-12-27T01:10:26.495Z,3.2
2022-12-27T01:11:26.656Z,3.2
2022-12-27T01:12:26.794Z,3.44
2022-12-27T01:13:26.950Z,3.28
2022-12-27T01:14:27.065Z,3.44
2022-12-27T01:15:27.218Z,3.84
2022-12-27T01:16:27.392Z,3.6
2022-12-27T01:17:27.444Z,3.44
2022-12-27T01:18:27.599Z,3.28
2022-12-27T01:19:27.753Z,3.2
2022-12-27T01:20:27.919Z,3.2
2022-12-27T01:21:28.101Z,3.28
2022-12-27T01:22:28.223Z,3.2
2022-12-27T01:23:28.369Z,3.2
2022-12-27T01:24:28.519Z,3.2
2022-12-27T01:25:28.672Z,3.2
2022-12-27T01:26:28.828Z,3.28
2022-12-27T01:27:28.976Z,3.28
2022-12-27T01:28:29.129Z,3.2
2022-12-27T01:29:29.283Z,3.12
2022-12-27T01:30:29.419Z,3.28
2022-12-27T01:31:29.725Z,3.2
2022-12-27T01:32:30.121Z,3.2
2022-12-27T01:33:30.269Z,3.12
2022-12-27T01:34:30.402Z,3.04
2022-12-27T01:35:30.237Z,3.12
2022-12-27T01:36:30.561Z,3.04
2022-12-27T01:37:30.437Z,2.88
2022-12-27T01:38:30.881Z,2.8
2022-12-27T01:39:31.083Z,2.88
2022-12-27T01:40:31.289Z,2.88
2022-12-27T01:41:31.328Z,2.88
2022-12-27T01:42:31.463Z,2.88
2022-12-27T01:43:31.631Z,3.04
2022-12-27T01:44:31.642Z,2.72
2022-12-27T01:45:31.912Z,2.8
2022-12-27T01:46:32.084Z,2.8
2022-12-27T01:47:32.202Z,2.88
2022-12-27T01:48:32.341Z,2.88
2022-12-27T01:49:32.499Z,2.72
2022-12-27T01:50:32.265Z,2.72
2022-12-27T01:51:32.411Z,2.72
2022-12-27T01:52:35.013Z,2.8
2022-12-27T01:53:32.706Z,2.88
2022-12-27T01:54:32.862Z,2.88
2022-12-27T01:55:33.018Z,2.88
2022-12-27T01:56:33.153Z,2.88
2022-12-27T01:57:33.323Z,2.72
2022-12-27T01:58:33.480Z,2.8
2022-12-27T01:59:33.620Z,2.72
2022-12-27T02:00:33.759Z,2.72
2022-12-27T02:01:33.978Z,2.72
2022-12-27T02:02:34.108Z,2.64
2022-12-27T02:03:34.215Z,2.64
2022-12-27T02:04:34.325Z,2.72
2022-12-27T02:05:34.417Z,2.64
2022-12-27T02:06:34.569Z,2.72
2022-12-27T02:07:34.718Z,2.64
2022-12-27T02:08:34.875Z,2.64
2022-12-27T02:09:35.063Z,2.64
2022-12-27T02:10:35.169Z,2.48
2022-12-27T02:11:35.321Z,2.48
2022-12-27T02:12:35.476Z,2.4
2022-12-27T02:13:35.628Z,2.32
2022-12-27T02:14:35.732Z,2.24
2022-12-27T02:15:35.887Z,2.08
2022-12-27T02:16:36.034Z,2
2022-12-27T02:17:36.138Z,2
2022-12-27T02:18:36.234Z,2
2022-12-27T02:19:36.386Z,2
2022-12-27T02:20:36.482Z,1.92
2022-12-27T02:21:36.584Z,2
2022-12-27T02:22:36.685Z,2
2022-12-27T02:23:39.767Z,2
2022-12-27T02:24:36.941Z,2
2022-12-27T02:25:37.095Z,1.92
2022-12-27T02:26:37.245Z,1.92
2022-12-27T02:27:37.355Z,2
2022-12-27T02:28:37.499Z,1.92
2022-12-27T02:29:37.632Z,1.92
2022-12-27T02:30:37.774Z,1.84
2022-12-27T02:31:37.868Z,1.68
2022-12-27T02:32:38.020Z,1.92
2022-12-27T02:33:38.180Z,1.92
2022-12-27T02:34:38.332Z,1.84
2022-12-27T02:35:38.490Z,1.92
2022-12-27T02:36:38.636Z,1.84
2022-12-27T02:37:38.784Z,1.84
2022-12-27T02:38:38.931Z,1.84
2022-12-27T02:39:39.087Z,1.68
2022-12-27T02:40:39.226Z,1.84
2022-12-27T02:41:39.392Z,1.6
2022-12-27T02:42:39.548Z,1.52
2022-12-27T02:43:39.635Z,1.44
2022-12-27T02:44:39.779Z,1.2
2022-12-27T02:45:39.926Z,1.44
2022-12-27T02:46:40.129Z,1.44
2022-12-27T02:47:40.243Z,1.28
2022-12-27T02:48:40.396Z,1.12
2022-12-27T02:49:40.550Z,1.2
2022-12-27T02:50:40.711Z,1.12
2022-12-27T02:51:40.860Z,1.04
2022-12-27T02:52:41.013Z,1.12
2022-12-27T02:53:41.159Z,0.8
2022-12-27T02:54:41.291Z,0.8
2022-12-27T02:55:41.410Z,0.8
2022-12-27T02:56:41.553Z,0.88
2022-12-27T02:57:41.708Z,0.88
2022-12-27T02:58:41.843Z,0.88
2022-12-27T02:59:41.976Z,0.72
2022-12-27T03:00:42.116Z,0.72
2022-12-27T03:01:42.469Z,0.72
2022-12-27T03:02:42.556Z,0.64
2022-12-27T03:03:44.377Z,0.48
2022-12-27T03:04:42.774Z,0.48
2022-12-27T03:05:42.924Z,0.72
2022-12-27T03:06:43.084Z,0.88
2022-12-27T03:07:43.230Z,0.88
2022-12-27T03:08:43.379Z,1.12
2022-12-27T03:09:43.543Z,0.8
2022-12-27T03:10:43.678Z,0.72
2022-12-27T03:11:43.825Z,0.8
2022-12-27T03:12:43.977Z,0.8
2022-12-27T03:13:44.136Z,1.04
2022-12-27T03:14:44.288Z,0.8
2022-12-27T03:15:44.463Z,0.88
2022-12-27T03:16:44.572Z,0.72
2022-12-27T03:17:44.733Z,0.72
2022-12-27T03:18:44.838Z,1.04
2022-12-27T03:19:44.995Z,0.88
2022-12-27T03:20:45.133Z,0.88
2022-12-27T03:21:45.282Z,1.04
2022-12-27T03:22:45.445Z,1.12
2022-12-27T03:23:45.540Z,1.04
2022-12-27T03:24:45.685Z,0.8
2022-12-27T03:25:45.843Z,0.64
2022-12-27T03:26:45.995Z,0.64
2022-12-27T03:27:46.098Z,0.8
2022-12-27T03:28:46.239Z,0.72
2022-12-27T03:29:46.408Z,0.64
2022-12-27T03:30:46.558Z,0.48
2022-12-27T03:31:46.697Z,0.32
2022-12-27T03:32:46.853Z,0.48
2022-12-27T03:33:46.999Z,0.64
2022-12-27T03:34:47.153Z,0.72
2022-12-27T03:35:47.302Z,0.4
2022-12-27T03:36:47.456Z,0.64
2022-12-27T03:37:47.603Z,0.64
2022-12-27T03:38:47.771Z,0.48
2022-12-27T03:39:47.916Z,0.4
2022-12-27T03:40:48.074Z,0.64
2022-12-27T03:41:48.232Z,0.72
2022-12-27T03:42:48.373Z,0.72
2022-12-27T03:43:48.521Z,0.72
2022-12-27T03:44:48.682Z,0.72
2022-12-27T03:45:48.768Z,0.48
2022-12-27T03:46:48.914Z,0.32
2022-12-27T03:47:49.104Z,0.32
2022-12-27T03:48:49.257Z,0.32
2022-12-27T03:49:49.384Z,0.4
2022-12-27T03:50:49.584Z,0.4
2022-12-27T03:51:49.635Z,0.64
2022-12-27T03:52:49.787Z,0.32
2022-12-27T03:53:49.942Z,0
2022-12-27T03:54:50.113Z,0.32
2022-12-27T03:55:50.246Z,0.24
2022-12-27T03:56:50.400Z,0.24
2022-12-27T03:57:50.548Z,0.4
2022-12-27T03:58:50.700Z,0.32
2022-12-27T03:59:50.855Z,0.08
2022-12-27T04:00:50.957Z,0.32
2022-12-27T04:01:51.170Z,0.08
2022-12-27T04:02:51.486Z,0
2022-12-27T04:03:51.411Z,0.24
2022-12-27T04:04:51.561Z,0
2022-12-27T04:05:51.714Z,0
2022-12-27T04:06:51.871Z,-0.08
2022-12-27T04:07:52.008Z,-0.24
2022-12-27T04:08:52.153Z,0.32
2022-12-27T04:09:52.301Z,0.08
2022-12-27T04:10:52.440Z,0.32
2022-12-27T04:11:52.524Z,0.24
2022-12-27T04:12:52.667Z,0.24
2022-12-27T04:13:52.888Z,0.32
2022-12-27T04:14:53.035Z,0.32
2022-12-27T04:15:53.184Z,0.08
2022-12-27T04:16:53.309Z,0.24
2022-12-27T04:17:53.465Z,0
2022-12-27T04:18:53.637Z,0.24
2022-12-27T04:19:53.781Z,0.32
2022-12-27T04:20:53.938Z,-0.08
2022-12-27T04:21:54.084Z,0.08
2022-12-27T04:22:54.240Z,0.32
2022-12-27T04:23:54.395Z,0.4
2022-12-27T04:24:54.548Z,0.4
2022-12-27T04:25:54.660Z,0.4
2022-12-27T04:26:54.955Z,0.24
2022-12-27T04:27:54.951Z,0.24
2022-12-27T04:28:55.094Z,0.08
2022-12-27T04:29:55.255Z,0.24
2022-12-27T04:30:55.389Z,0.32
2022-12-27T04:31:55.558Z,0.4
2022-12-27T04:32:55.732Z,0.32
2022-12-27T04:33:55.934Z,0.64
2022-12-27T04:34:56.094Z,0.32
2022-12-27T04:35:58.157Z,0.32
2022-12-27T04:36:56.391Z,0.4
2022-12-27T04:37:56.565Z,0.32
2022-12-27T04:38:56.715Z,0.4
2022-12-27T04:39:56.877Z,0.32
2022-12-27T04:40:57.015Z,0.32
2022-12-27T04:41:57.169Z,0.4
2022-12-27T04:42:57.309Z,0.4
2022-12-27T04:43:57.466Z,0.4
2022-12-27T04:44:57.627Z,0.4
2022-12-27T04:45:57.756Z,0.64
2022-12-27T04:46:57.925Z,0.48
2022-12-27T04:47:58.070Z,0.72
2022-12-27T04:48:58.222Z,0.8
2022-12-27T04:49:58.372Z,1.04
2022-12-27T04:50:58.530Z,0.88
2022-12-27T04:51:58.684Z,0.88
2022-12-27T04:52:58.834Z,0.88
2022-12-27T04:53:58.981Z,0.8
2022-12-27T04:54:59.137Z,0.88
2022-12-27T04:55:59.281Z,0.88
2022-12-27T04:56:59.439Z,0.88
2022-12-27T04:57:59.537Z,0.88
2022-12-27T04:58:59.689Z,0.88
2022-12-27T04:59:59.836Z,1.04
2022-12-27T05:00:59.975Z,1.12
2022-12-27T05:02:00.183Z,1.04
2022-12-27T05:03:00.303Z,1.12
2022-12-27T05:04:00.392Z,0.88
2022-12-27T05:05:00.561Z,0.8
2022-12-27T05:06:00.702Z,1.12
2022-12-27T05:07:00.856Z,1.04
2022-12-27T05:08:01.003Z,0.88
2022-12-27T05:09:01.156Z,0.8
2022-12-27T05:10:01.307Z,0.64
2022-12-27T05:11:01.452Z,0.48
2022-12-27T05:12:01.557Z,0.64
2022-12-27T05:13:01.711Z,0.64
2022-12-27T05:14:01.886Z,0.48
2022-12-27T05:15:02.018Z,0.48
2022-12-27T05:16:02.183Z,0.4
2022-12-27T05:17:02.258Z,0.4
2022-12-27T05:18:02.851Z,0.4
2022-12-27T05:19:03.020Z,0.48
2022-12-27T05:20:03.166Z,0.48
2022-12-27T05:21:03.282Z,0.64
2022-12-27T05:22:03.513Z,0.64
2022-12-27T05:23:03.593Z,0.48
2022-12-27T05:24:05.555Z,0.24
2022-12-27T05:25:03.432Z,0.24
2022-12-27T05:26:03.576Z,0.24
2022-12-27T05:27:03.734Z,0.08
2022-12-27T05:28:03.878Z,0.32
2022-12-27T05:29:04.033Z,0.32
2022-12-27T05:30:04.186Z,0.48
2022-12-27T05:31:04.401Z,0.32
2022-12-27T05:32:08.008Z,0.24
2022-12-27T05:33:04.630Z,0.24
2022-12-27T05:34:04.784Z,0.24
2022-12-27T05:35:04.942Z,0.24
2022-12-27T05:36:05.094Z,0.32
2022-12-27T05:37:05.201Z,0.48
2022-12-27T05:38:05.431Z,0.4
2022-12-27T05:39:05.515Z,0.4
2022-12-27T05:40:05.652Z,0.24
2022-12-27T05:41:05.799Z,0.32
2022-12-27T05:42:05.972Z,0.4
2022-12-27T05:43:06.110Z,0.48
2022-12-27T05:44:07.516Z,0.32
2022-12-27T05:45:06.410Z,0.08
2022-12-27T05:46:06.540Z,0.4
2022-12-27T05:47:06.710Z,0.24
2022-12-27T05:48:06.891Z,0
2022-12-27T05:49:07.004Z,0.32
2022-12-27T05:50:07.115Z,0.32
2022-12-27T05:51:07.262Z,0.48
2022-12-27T05:52:07.457Z,0.24
2022-12-27T05:53:07.604Z,0.24
2022-12-27T05:54:07.757Z,0.24
2022-12-27T05:55:07.907Z,0.24
2022-12-27T05:56:08.045Z,0.32
2022-12-27T05:57:08.176Z,0.32
2022-12-27T05:58:08.332Z,0.32
2022-12-27T05:59:08.445Z,0.24
2022-12-27T06:00:08.575Z,0.4
2022-12-27T06:01:08.714Z,0.24
2022-12-27T06:02:09.028Z,0.64
2022-12-27T06:03:09.124Z,0.24
2022-12-27T06:04:09.194Z,0.4
2022-12-27T06:05:09.329Z,0.4
2022-12-27T06:06:09.493Z,0.4
2022-12-27T06:07:09.626Z,0.08
2022-12-27T06:08:09.784Z,0.24
2022-12-27T06:09:10.273Z,0.24
2022-12-27T06:10:10.054Z,0.24
2022-12-27T06:11:10.205Z,0
2022-12-27T06:12:10.347Z,0.48
2022-12-27T06:13:10.450Z,0.48
2022-12-27T06:14:10.549Z,0.48
2022-12-27T06:15:10.702Z,0.32
2022-12-27T06:16:10.869Z,0.32
2022-12-27T06:17:10.958Z,0.32
2022-12-27T06:18:11.107Z,0.32
2022-12-27T06:19:11.259Z,0.48
2022-12-27T06:20:11.418Z,0.4
2022-12-27T06:21:11.559Z,0.32
2022-12-27T06:22:11.707Z,0.32
2022-12-27T06:23:11.865Z,0.4
2022-12-27T06:24:12.013Z,0.32
2022-12-27T06:25:14.255Z,0.4
2022-12-27T06:26:12.336Z,0.48
2022-12-27T06:27:12.480Z,0.32
2022-12-27T06:28:12.627Z,0.32
2022-12-27T06:29:12.771Z,0.32
2022-12-27T06:30:12.925Z,0.24
2022-12-27T06:31:13.145Z,0.32
2022-12-27T06:32:13.208Z,0.32
2022-12-27T06:33:13.388Z,0.4
2022-12-27T06:34:13.499Z,0.24
2022-12-27T06:35:13.632Z,0.24
2022-12-27T06:36:13.786Z,0.4
2022-12-27T06:37:13.945Z,0.48
2022-12-27T06:38:14.085Z,0.64
2022-12-27T06:39:14.234Z,0.48
2022-12-27T06:40:14.399Z,0.08
2022-12-27T06:41:14.546Z,0.24
2022-12-27T06:42:14.691Z,0.32
2022-12-27T06:43:14.842Z,0.32
2022-12-27T06:44:14.997Z,0.32
2022-12-27T06:45:15.156Z,0.4
2022-12-27T06:46:17.504Z,0.48
2022-12-27T06:47:15.396Z,0.48
2022-12-27T06:48:15.546Z,0.48
2022-12-27T06:49:15.654Z,0.4
2022-12-27T06:50:15.808Z,0
2022-12-27T06:51:15.955Z,-0.08
2022-12-27T06:52:16.126Z,0.24
2022-12-27T06:53:16.254Z,0.48
2022-12-27T06:54:16.414Z,0.4
2022-12-27T06:55:16.564Z,0.24
2022-12-27T06:56:16.713Z,0.24
2022-12-27T06:57:16.861Z,0.32
2022-12-27T06:58:16.973Z,0.4
2022-12-27T06:59:17.126Z,0.32
2022-12-27T07:00:17.270Z,0.48
2022-12-27T07:01:17.447Z,0.48
2022-12-27T07:02:17.611Z,0.64
2022-12-27T07:03:17.676Z,0.4
2022-12-27T07:04:17.834Z,0.4
2022-12-27T07:05:17.963Z,0.32
2022-12-27T07:06:18.149Z,0.32
2022-12-27T07:07:18.282Z,0.32
2022-12-27T07:08:18.433Z,0
2022-12-27T07:09:18.583Z,0
2022-12-27T07:10:18.733Z,0.08
2022-12-27T07:11:18.920Z,0.08
2022-12-27T07:12:19.034Z,0.24
2022-12-27T07:13:19.180Z,0.4
2022-12-27T07:14:19.283Z,0.64
2022-12-27T07:15:19.405Z,0.72
2022-12-27T07:16:19.572Z,0.64
2022-12-27T07:17:19.646Z,0.72
2022-12-27T07:18:19.798Z,0.8
2022-12-27T07:19:19.958Z,0.72
2022-12-27T07:20:20.105Z,1.04
2022-12-27T07:21:20.253Z,1.04
2022-12-27T07:22:20.397Z,1.04
2022-12-27T07:23:20.552Z,1.12
2022-12-27T07:24:20.706Z,1.12
2022-12-27T07:25:20.860Z,1.12
2022-12-27T07:26:21.002Z,1.2
2022-12-27T07:27:21.147Z,1.2
2022-12-27T07:28:21.309Z,1.2
2022-12-27T07:29:21.450Z,1.28
2022-12-27T07:30:21.998Z,1.44
2022-12-27T07:31:21.789Z,1.28
2022-12-27T07:32:21.912Z,1.44
2022-12-27T07:33:22.637Z,1.28
2022-12-27T07:34:22.189Z,1.28
2022-12-27T07:35:22.325Z,1.44
2022-12-27T07:36:22.437Z,1.44
2022-12-27T07:37:22.564Z,1.44
2022-12-27T07:38:22.725Z,1.44
2022-12-27T07:39:22.891Z,1.44
2022-12-27T07:40:23.012Z,1.44
2022-12-27T07:41:23.179Z,1.28
2022-12-27T07:42:23.348Z,1.6
2022-12-27T07:43:23.482Z,1.52
2022-12-27T07:44:23.660Z,1.6
2022-12-27T07:45:23.790Z,1.68
2022-12-27T07:46:23.929Z,1.52
2022-12-27T07:47:24.087Z,1.6
2022-12-27T07:48:24.241Z,1.68
2022-12-27T07:49:24.389Z,1.84
2022-12-27T07:50:24.547Z,1.68
2022-12-27T07:51:24.699Z,1.84
2022-12-27T07:52:24.845Z,1.92
2022-12-27T07:53:24.988Z,1.92
2022-12-27T07:54:25.141Z,1.92
2022-12-27T07:55:25.302Z,1.92
2022-12-27T07:56:26.717Z,1.92
2022-12-27T07:57:25.623Z,2
2022-12-27T07:58:25.821Z,2.08
2022-12-27T07:59:25.953Z,2
2022-12-27T08:00:26.104Z,2
2022-12-27T08:01:26.452Z,2.24
2022-12-27T08:02:26.455Z,2.08
2022-12-27T08:03:26.537Z,2
2022-12-27T08:04:26.611Z,2
2022-12-27T08:05:27.951Z,2
2022-12-27T08:06:26.928Z,1.92
2022-12-27T08:07:27.065Z,2
2022-12-27T08:08:27.216Z,2
2022-12-27T08:09:27.366Z,2.08
2022-12-27T08:10:27.621Z,2
2022-12-27T08:11:27.677Z,2.08
2022-12-27T08:12:27.833Z,2.32
2022-12-27T08:13:27.967Z,2.24
2022-12-27T08:14:28.370Z,2.08
2022-12-27T08:15:28.215Z,2.32
2022-12-27T08:16:28.392Z,2.4
2022-12-27T08:17:28.434Z,2.32
2022-12-27T08:18:28.584Z,2.08
2022-12-27T08:19:28.726Z,2.24
2022-12-27T08:20:28.948Z,2.08
2022-12-27T08:21:29.033Z,2.08
2022-12-27T08:22:29.170Z,2.24
2022-12-27T08:23:29.295Z,2.24
2022-12-27T08:24:29.451Z,2.08
2022-12-27T08:25:29.591Z,2.24
2022-12-27T08:26:29.751Z,2.24
2022-12-27T08:27:29.897Z,2.24
2022-12-27T08:28:30.048Z,2.24
2022-12-27T08:29:30.152Z,2.24
2022-12-27T08:30:30.320Z,2.24
2022-12-27T08:31:30.435Z,2.32
2022-12-27T08:32:30.573Z,2.4
2022-12-27T08:33:30.704Z,2.32
2022-12-27T08:34:30.857Z,2.32
2022-12-27T08:35:52.003Z,2.32
2022-12-27T08:36:59.779Z,2.24
2022-12-27T08:37:31.243Z,2.32
2022-12-27T08:38:31.418Z,2.24
2022-12-27T08:39:31.563Z,2.24
2022-12-27T08:40:31.710Z,2.64
2022-12-27T08:41:31.922Z,2.64
2022-12-27T08:42:31.955Z,2.8
2022-12-27T08:43:32.116Z,3.44
2022-12-27T08:44:32.287Z,3.68
2022-12-27T08:45:32.405Z,3.2
2022-12-27T08:46:32.580Z,2.88
2022-12-27T08:47:32.618Z,2.72
2022-12-27T08:48:32.831Z,2.88
2022-12-27T08:49:32.936Z,3.04
2022-12-27T08:50:33.098Z,2.8
2022-12-27T08:51:40.280Z,2.8
2022-12-27T08:52:33.357Z,2.72
2022-12-27T08:53:33.431Z,2.8
2022-12-27T08:54:33.584Z,2.8
2022-12-27T08:55:33.730Z,2.72
2022-12-27T08:56:33.882Z,2.72
2022-12-27T08:57:34.038Z,2.8
2022-12-27T08:58:34.191Z,3.04
2022-12-27T08:59:34.358Z,2.8
2022-12-27T09:00:34.521Z,2.72
2022-12-27T09:01:34.716Z,2.72
2022-12-27T09:02:34.817Z,2.72
2022-12-27T09:03:34.858Z,2.8
2022-12-27T09:04:34.993Z,2.8
2022-12-27T09:05:39.727Z,2.8
2022-12-27T09:06:35.314Z,2.8
2022-12-27T09:07:35.458Z,2.88
2022-12-27T09:08:35.608Z,2.8
2022-12-27T09:09:35.777Z,3.12
2022-12-27T09:10:35.903Z,3.04
2022-12-27T09:11:36.030Z,3.04
2022-12-27T09:12:36.180Z,3.12
2022-12-27T09:13:36.316Z,3.2
2022-12-27T09:14:36.479Z,3.04
2022-12-27T09:15:36.657Z,3.04
2022-12-27T09:16:36.736Z,3.2
2022-12-27T09:17:36.868Z,3.44
2022-12-27T09:18:36.989Z,3.2
2022-12-27T09:19:37.117Z,3.12
2022-12-27T09:20:37.313Z,3.12
2022-12-27T09:21:37.417Z,3.2
2022-12-27T09:22:37.568Z,3.2
2022-12-27T09:23:37.858Z,3.2
2022-12-27T09:24:37.964Z,3.28
2022-12-27T09:25:38.196Z,3.68
2022-12-27T09:26:38.279Z,4.16
2022-12-27T09:27:38.444Z,3.92
2022-12-27T09:28:38.544Z,3.52
2022-12-27T09:29:41.603Z,3.52
2022-12-27T09:30:38.822Z,3.28
2022-12-27T09:31:38.983Z,3.28
2022-12-27T09:32:39.089Z,3.28
2022-12-27T09:33:39.237Z,3.12
2022-12-27T09:34:39.382Z,3.12
2022-12-27T09:35:39.540Z,3.04
2022-12-27T09:36:39.707Z,3.12
2022-12-27T09:37:39.859Z,3.04
2022-12-27T09:38:40.005Z,3.2
2022-12-27T09:39:40.144Z,3.84
2022-12-27T09:40:40.317Z,4.16
2022-12-27T09:42:34.070Z,4.08
2022-12-27T09:43:40.693Z,3.2
2022-12-27T09:44:40.820Z,3.12
2022-12-27T09:45:40.949Z,3.04
2022-12-27T09:46:41.155Z,2.88
2022-12-27T09:47:41.651Z,3.12
2022-12-27T09:48:41.745Z,3.52
2022-12-27T09:49:41.899Z,4.08
2022-12-27T09:50:41.658Z,4.72
2022-12-27T09:51:41.825Z,5.2
2022-12-27T09:52:41.963Z,5.84
2022-12-27T09:53:42.105Z,6.4
2022-12-27T09:54:42.214Z,6.8
2022-12-27T09:55:42.382Z,7.12
2022-12-27T09:57:09.954Z,6.72
2022-12-27T09:57:42.671Z,7.2
2022-12-27T09:58:42.843Z,6.08
2022-12-27T09:59:42.980Z,6.64
2022-12-27T10:00:46.301Z,6.48
2022-12-27T10:01:43.269Z,6.64
2022-12-27T10:02:43.523Z,7.84
2022-12-27T10:03:43.545Z,7.12
2022-12-27T10:05:43.859Z,7.44
2022-12-27T10:06:44.003Z,6.8
2022-12-27T10:07:44.151Z,7.04
2022-12-27T10:08:44.291Z,6
2022-12-27T10:09:44.444Z,5.6
2022-12-27T10:10:44.610Z,5.92
2022-12-27T10:11:44.752Z,5.28
2022-12-27T10:12:44.912Z,5.52
2022-12-27T10:13:45.087Z,5.44
2022-12-27T10:14:45.209Z,5.6
2022-12-27T10:15:45.377Z,6
2022-12-27T10:16:45.455Z,5.68
2022-12-27T10:17:49.478Z,5.92
2022-12-27T10:18:45.784Z,6.08
2022-12-27T10:19:45.936Z,6.72
2022-12-27T10:20:46.056Z,5.6
2022-12-27T10:21:46.165Z,6.24
2022-12-27T10:22:46.319Z,5.92
2022-12-27T10:23:46.473Z,6.32
2022-12-27T10:24:46.630Z,6.24
2022-12-27T10:25:46.767Z,6.48
2022-12-27T10:26:46.873Z,7.2
2022-12-27T10:27:47.027Z,6.88
2022-12-27T10:28:47.540Z,7.68
2022-12-27T10:29:47.580Z,6.88
2022-12-27T10:30:47.419Z,5.68
2022-12-27T10:31:47.559Z,5.04
2022-12-27T10:32:47.727Z,5.04
2022-12-27T10:33:47.885Z,4.88
2022-12-27T10:34:47.990Z,5.28
2022-12-27T10:35:48.137Z,5.2
2022-12-27T10:36:48.285Z,5.44
2022-12-27T10:37:48.428Z,5.28
2022-12-27T10:38:48.600Z,6
2022-12-27T10:39:48.741Z,6.88
2022-12-27T10:40:48.875Z,7.28
2022-12-27T10:41:49.039Z,7.28
2022-12-27T10:42:49.188Z,7.04
2022-12-27T10:43:49.336Z,7.04
2022-12-27T10:44:49.501Z,6
2022-12-27T10:45:49.633Z,5.52
2022-12-27T10:46:49.824Z,5.12
2022-12-27T10:47:49.965Z,5.2
2022-12-27T10:49:19.214Z,4.8
2022-12-27T10:49:50.253Z,5.04
2022-12-27T10:50:50.398Z,6.24
2022-12-27T10:51:50.556Z,6.64
2022-12-27T10:52:55.751Z,6.8
2022-12-27T10:53:50.804Z,7.28
2022-12-27T10:54:50.979Z,6.48
2022-12-27T10:55:51.118Z,5.92
2022-12-27T10:56:51.280Z,5.84
2022-12-27T10:57:51.414Z,5.68
2022-12-27T10:58:56.721Z,5.84
2022-12-27T10:59:51.723Z,5.68
2022-12-27T11:00:51.848Z,5.28
2022-12-27T11:01:51.956Z,5.04
2022-12-27T11:02:52.081Z,4.48
2022-12-27T11:03:52.179Z,4.88
2022-12-27T11:04:52.320Z,4.4
2022-12-27T11:05:52.476Z,4.48
2022-12-27T11:06:52.583Z,4.48
2022-12-27T11:07:52.746Z,4.4
2022-12-27T11:08:52.881Z,4.64
2022-12-27T11:09:53.025Z,4.48
2022-12-27T11:10:53.199Z,4.8
2022-12-27T11:11:53.342Z,5.2
2022-12-27T11:12:53.505Z,5.52
2022-12-27T11:13:53.638Z,5.52
2022-12-27T11:14:53.785Z,5.2
2022-12-27T11:15:58.255Z,5.04
2022-12-27T11:16:53.993Z,5.28
2022-12-27T11:17:54.143Z,5.2
2022-12-27T11:18:54.301Z,5.04
2022-12-27T11:19:54.449Z,5.2
2022-12-27T11:20:54.615Z,5.12
2022-12-27T11:21:54.756Z,4.8
2022-12-27T11:22:54.855Z,5.12
2022-12-27T11:23:55.001Z,5.44
2022-12-27T11:24:55.152Z,6
2022-12-27T11:25:55.309Z,6.32
2022-12-27T11:26:55.453Z,6.88
2022-12-27T11:27:55.612Z,7.04
2022-12-27T11:28:55.767Z,6.88
2022-12-27T11:29:55.865Z,6.24
2022-12-27T11:30:55.954Z,6
2022-12-27T11:31:56.132Z,5.6
2022-12-27T11:32:56.269Z,5.6
2022-12-27T11:33:56.430Z,5.44
2022-12-27T11:34:56.573Z,6
2022-12-27T11:35:56.734Z,5.6
2022-12-27T11:36:56.872Z,6.8
2022-12-27T11:37:57.020Z,7.44
2022-12-27T11:38:57.180Z,7.84
2022-12-27T11:39:57.398Z,7.44
2022-12-27T11:40:57.551Z,7.84
2022-12-27T11:41:57.743Z,8.4
2022-12-27T11:42:57.778Z,8.32
2022-12-27T11:43:57.935Z,8.4
2022-12-27T11:44:58.088Z,8.8
2022-12-27T11:45:58.175Z,9.12
2022-12-27T11:46:59.391Z,9.36
2022-12-27T11:47:58.446Z,9.52
2022-12-27T11:48:58.607Z,8.8
2022-12-27T11:49:58.743Z,9.04
2022-12-27T11:50:58.900Z,9.599999
2022-12-27T11:51:59.047Z,9.2
2022-12-27T11:52:59.204Z,8.24
2022-12-27T11:53:59.360Z,9.36
2022-12-27T11:54:59.509Z,9.679999
2022-12-27T11:55:59.649Z,10.4
2022-12-27T11:56:59.805Z,9.28
2022-12-27T11:57:59.957Z,9.36
2022-12-27T11:59:00.101Z,9.04
2022-12-27T12:00:00.247Z,9.2
2022-12-27T12:01:05.207Z,10.08
2022-12-27T12:02:00.617Z,10.639999
2022-12-27T12:03:00.842Z,10.08
2022-12-27T12:04:00.819Z,9.36
2022-12-27T12:05:00.968Z,8.4
2022-12-27T12:06:01.123Z,8.24
2022-12-27T12:07:01.272Z,8.88
2022-12-27T12:08:01.386Z,8.72
2022-12-27T12:09:01.522Z,9.12
2022-12-27T12:10:01.675Z,7.84
2022-12-27T12:11:01.811Z,8.72
2022-12-27T12:12:01.980Z,8.72
2022-12-27T12:13:02.127Z,8.639999
2022-12-27T12:14:02.277Z,8.48
2022-12-27T12:15:02.431Z,7.52
2022-12-27T12:16:02.643Z,6.72
2022-12-27T12:17:02.672Z,6.24
2022-12-27T12:18:02.799Z,6.4
2022-12-27T12:19:02.941Z,6.48
2022-12-27T12:20:03.086Z,6.48
2022-12-27T12:21:03.232Z,6.48
2022-12-27T12:22:03.382Z,6.32
2022-12-27T12:23:03.543Z,6.4
2022-12-27T12:24:03.689Z,6.4
2022-12-27T12:25:03.845Z,5.68
2022-12-27T12:26:03.999Z,6.08
2022-12-27T12:27:04.160Z,6.24
2022-12-27T12:28:13.187Z,6.24
2022-12-27T12:29:04.456Z,6.8
2022-12-27T12:30:04.601Z,5.92
2022-12-27T12:31:04.746Z,6.24
2022-12-27T12:32:04.980Z,6.08
2022-12-27T12:33:05.050Z,5.84
2022-12-27T12:34:05.221Z,5.52
2022-12-27T12:35:05.354Z,5.68
2022-12-27T12:36:05.464Z,5.6
2022-12-27T12:37:05.609Z,6.08
2022-12-27T12:38:05.770Z,5.68
2022-12-27T12:39:05.920Z,5.44
2022-12-27T12:40:06.076Z,5.2
2022-12-27T12:41:06.320Z,5.28
2022-12-27T12:42:06.326Z,5.44
2022-12-27T12:43:06.482Z,5.2
2022-12-27T12:44:06.629Z,5.04
2022-12-27T12:45:06.771Z,5.2
2022-12-27T12:46:06.957Z,5.2
2022-12-27T12:47:07.065Z,5.44
2022-12-27T12:48:07.158Z,5.28
2022-12-27T12:49:07.312Z,4.88
2022-12-27T12:50:12.994Z,4.8
2022-12-27T12:51:07.645Z,5.04
2022-12-27T12:52:07.788Z,5.04
2022-12-27T12:53:07.934Z,5.12
2022-12-27T12:54:08.092Z,4.88
2022-12-27T12:55:08.223Z,4.72
2022-12-27T12:56:08.359Z,4.72
2022-12-27T12:57:08.494Z,4.72
2022-12-27T12:58:08.645Z,4.8
2022-12-27T12:59:08.790Z,4.88
2022-12-27T13:00:08.972Z,5.04
2022-12-27T13:01:09.155Z,4.88
2022-12-27T13:02:09.458Z,5.28
2022-12-27T13:03:09.547Z,5.28
2022-12-27T13:04:09.550Z,5.28
2022-12-27T13:05:09.701Z,5.44
2022-12-27T13:06:09.872Z,5.52
2022-12-27T13:07:09.993Z,5.6
2022-12-27T13:08:10.168Z,5.68
2022-12-27T13:09:10.302Z,5.6
2022-12-27T13:10:10.548Z,5.52
2022-12-27T13:11:10.609Z,5.44
2022-12-27T13:12:10.749Z,5.44
2022-12-27T13:13:10.922Z,5.52
2022-12-27T13:14:11.078Z,5.68
2022-12-27T13:15:11.224Z,5.68
2022-12-27T13:16:11.370Z,5.68
2022-12-27T13:17:11.463Z,5.68
2022-12-27T13:18:11.623Z,6
2022-12-27T13:19:11.794Z,5.84
2022-12-27T13:20:11.931Z,5.84
2022-12-27T13:21:12.067Z,5.52
2022-12-27T13:22:12.213Z,5.68
2022-12-27T13:23:12.370Z,5.84
2022-12-27T13:24:12.477Z,5.52
2022-12-27T13:25:12.617Z,5.44
2022-12-27T13:26:12.793Z,5.44
2022-12-27T13:27:12.940Z,5.28
2022-12-27T13:28:13.084Z,5.12
2022-12-27T13:29:13.622Z,5.04
2022-12-27T13:30:13.642Z,4.88